sensor_id;sensor_type;location;lat;lon;timestamp;temperature;humidity
55642;DHT22;41509;53.108;6.100;2023-02-28T00:01:34;4.70;99.90
55642;DHT22;41509;53.108;6.100;2023-02-28T00:04:00;4.60;99.90
55642;DHT22;41509;53.108;6.100;2023-02-28T00:06:26;4.70;99.90
55642;DHT22;41509;53.108;6.100;2023-02-28T00:08:52;4.70;99.90
55642;DHT22;41509;53.108;6.100;2023-02-28T00:11:20;4.70;99.90
55642;DHT22;41509;53.108;6.100;2023-02-28T00:13:47;4.70;99.90
55642;DHT22;41509;53.108;6.100;2023-02-28T00:16:17;4.70;99.90
55642;DHT22;41509;53.108;6.100;2023-02-28T00:18:44;4.70;99.90
55642;DHT22;41509;53.108;6.100;2023-02-28T00:21:09;4.70;99.90
55642;DHT22;41509;53.108;6.100;2023-02-28T00:23:36;4.70;99.90
55642;DHT22;41509;53.108;6.100;2023-02-28T00:26:02;4.70;99.90
55642;DHT22;41509;53.108;6.100;2023-02-28T00:28:28;4.70;99.90
55642;DHT22;41509;53.108;6.100;2023-02-28T00:30:53;4.70;99.90
55642;DHT22;41509;53.108;6.100;2023-02-28T00:33:19;4.70;99.90
55642;DHT22;41509;53.108;6.100;2023-02-28T00:35:45;4.70;99.90
55642;DHT22;41509;53.108;6.100;2023-02-28T00:38:14;4.80;99.90
55642;DHT22;41509;53.108;6.100;2023-02-28T00:40:40;4.70;99.90
55642;DHT22;41509;53.108;6.100;2023-02-28T00:43:06;4.70;99.90
55642;DHT22;41509;53.108;6.100;2023-02-28T00:45:31;4.80;99.90
55642;DHT22;41509;53.108;6.100;2023-02-28T00:47:57;4.70;99.90
55642;DHT22;41509;53.108;6.100;2023-02-28T00:50:23;4.70;99.90
55642;DHT22;41509;53.108;6.100;2023-02-28T00:52:49;4.70;99.90
55642;DHT22;41509;53.108;6.100;2023-02-28T00:55:14;4.70;99.90
55642;DHT22;41509;53.108;6.100;2023-02-28T00:57:40;4.70;99.90
55642;DHT22;41509;53.108;6.100;2023-02-28T01:00:06;4.80;99.90
55642;DHT22;41509;53.108;6.100;2023-02-28T01:02:32;4.70;99.90
55642;DHT22;41509;53.108;6.100;2023-02-28T01:04:58;4.80;99.90
55642;DHT22;41509;53.108;6.100;2023-02-28T01:07:24;4.80;99.90
55642;DHT22;41509;53.108;6.100;2023-02-28T01:09:49;4.70;99.90
55642;DHT22;41509;53.108;6.100;2023-02-28T01:12:16;4.80;99.90
55642;DHT22;41509;53.108;6.100;2023-02-28T01:14:41;4.80;99.90
55642;DHT22;41509;53.108;6.100;2023-02-28T01:17:07;4.80;99.90
55642;DHT22;41509;53.108;6.100;2023-02-28T01:19:33;4.70;99.90
55642;DHT22;41509;53.108;6.100;2023-02-28T01:22:04;4.80;99.90
55642;DHT22;41509;53.108;6.100;2023-02-28T01:24:30;4.80;99.90
55642;DHT22;41509;53.108;6.100;2023-02-28T01:26:56;4.80;99.90
55642;DHT22;41509;53.108;6.100;2023-02-28T01:29:22;4.80;99.90
55642;DHT22;41509;53.108;6.100;2023-02-28T01:31:50;4.80;99.90
55642;DHT22;41509;53.108;6.100;2023-02-28T01:34:16;4.80;99.90
55642;DHT22;41509;53.108;6.100;2023-02-28T01:36:44;4.80;99.90
55642;DHT22;41509;53.108;6.100;2023-02-28T01:39:10;4.80;99.90
55642;DHT22;41509;53.108;6.100;2023-02-28T01:41:35;4.80;99.90
55642;DHT22;41509;53.108;6.100;2023-02-28T01:44:06;4.80;99.90
55642;DHT22;41509;53.108;6.100;2023-02-28T01:46:35;4.80;99.90
55642;DHT22;41509;53.108;6.100;2023-02-28T01:49:06;4.80;99.90
55642;DHT22;41509;53.108;6.100;2023-02-28T01:51:46;4.70;99.90
55642;DHT22;41509;53.108;6.100;2023-02-28T01:54:26;4.80;99.90
55642;DHT22;41509;53.108;6.100;2023-02-28T01:57:10;4.80;99.90
55642;DHT22;41509;53.108;6.100;2023-02-28T01:59:41;4.80;99.90
55642;DHT22;41509;53.108;6.100;2023-02-28T02:02:12;4.80;99.90
55642;DHT22;41509;53.108;6.100;2023-02-28T02:04:57;4.80;99.90
55642;DHT22;41509;53.108;6.100;2023-02-28T02:07:25;4.80;99.90
55642;DHT22;41509;53.108;6.100;2023-02-28T02:10:00;4.80;99.90
55642;DHT22;41509;53.108;6.100;2023-02-28T02:12:36;4.80;99.90
55642;DHT22;41509;53.108;6.100;2023-02-28T02:15:20;4.90;99.90
55642;DHT22;41509;53.108;6.100;2023-02-28T02:17:56;4.90;99.90
55642;DHT22;41509;53.108;6.100;2023-02-28T02:36:29;4.90;99.90
55642;DHT22;41509;53.108;6.100;2023-02-28T02:41:41;4.90;99.90
55642;DHT22;41509;53.108;6.100;2023-02-28T02:44:20;4.90;99.90
55642;DHT22;41509;53.108;6.100;2023-02-28T02:46:49;4.90;99.90
55642;DHT22;41509;53.108;6.100;2023-02-28T02:49:30;4.90;99.90
55642;DHT22;41509;53.108;6.100;2023-02-28T02:52:00;4.90;99.90
55642;DHT22;41509;53.108;6.100;2023-02-28T02:54:30;5.00;99.90
55642;DHT22;41509;53.108;6.100;2023-02-28T02:57:00;4.90;99.90
55642;DHT22;41509;53.108;6.100;2023-02-28T02:59:28;5.00;99.90
55642;DHT22;41509;53.108;6.100;2023-02-28T03:02:00;4.90;99.90
55642;DHT22;41509;53.108;6.100;2023-02-28T03:04:32;5.00;99.90
55642;DHT22;41509;53.108;6.100;2023-02-28T03:06:58;5.00;99.90
55642;DHT22;41509;53.108;6.100;2023-02-28T03:09:25;5.00;99.90
55642;DHT22;41509;53.108;6.100;2023-02-28T03:11:52;4.90;99.90
55642;DHT22;41509;53.108;6.100;2023-02-28T03:17:24;5.00;99.90
55642;DHT22;41509;53.108;6.100;2023-02-28T03:22:52;4.90;99.90
55642;DHT22;41509;53.108;6.100;2023-02-28T03:27:49;5.00;99.90
55642;DHT22;41509;53.108;6.100;2023-02-28T03:30:41;5.00;99.90
55642;DHT22;41509;53.108;6.100;2023-02-28T03:33:16;5.00;99.90
55642;DHT22;41509;53.108;6.100;2023-02-28T03:35:52;5.00;99.90
55642;DHT22;41509;53.108;6.100;2023-02-28T03:38:33;5.00;99.90
55642;DHT22;41509;53.108;6.100;2023-02-28T03:41:09;5.00;99.90
55642;DHT22;41509;53.108;6.100;2023-02-28T03:43:39;5.00;99.90
55642;DHT22;41509;53.108;6.100;2023-02-28T03:46:10;5.00;99.90
55642;DHT22;41509;53.108;6.100;2023-02-28T03:48:43;5.00;99.90
55642;DHT22;41509;53.108;6.100;2023-02-28T03:51:12;5.00;99.90
55642;DHT22;41509;53.108;6.100;2023-02-28T03:53:50;5.00;99.90
55642;DHT22;41509;53.108;6.100;2023-02-28T03:56:27;5.00;99.90
55642;DHT22;41509;53.108;6.100;2023-02-28T04:06:25;5.00;99.90
55642;DHT22;41509;53.108;6.100;2023-02-28T04:08:51;5.00;99.90
55642;DHT22;41509;53.108;6.100;2023-02-28T04:11:20;5.00;99.90
55642;DHT22;41509;53.108;6.100;2023-02-28T04:13:47;5.00;99.90
55642;DHT22;41509;53.108;6.100;2023-02-28T04:16:13;5.00;99.90
55642;DHT22;41509;53.108;6.100;2023-02-28T04:18:39;5.00;99.90
55642;DHT22;41509;53.108;6.100;2023-02-28T04:21:06;5.10;99.90
55642;DHT22;41509;53.108;6.100;2023-02-28T04:23:32;5.10;99.90
55642;DHT22;41509;53.108;6.100;2023-02-28T04:25:58;5.00;99.90
55642;DHT22;41509;53.108;6.100;2023-02-28T04:28:24;5.10;99.90
55642;DHT22;41509;53.108;6.100;2023-02-28T04:31:01;5.10;99.90
55642;DHT22;41509;53.108;6.100;2023-02-28T04:33:27;5.00;99.90
55642;DHT22;41509;53.108;6.100;2023-02-28T04:36:07;5.00;99.90
55642;DHT22;41509;53.108;6.100;2023-02-28T04:38:38;4.90;99.90
55642;DHT22;41509;53.108;6.100;2023-02-28T04:41:04;4.90;99.90
55642;DHT22;41509;53.108;6.100;2023-02-28T04:43:30;4.90;99.90
55642;DHT22;41509;53.108;6.100;2023-02-28T04:45:57;4.80;99.90
55642;DHT22;41509;53.108;6.100;2023-02-28T04:48:24;4.80;99.90
55642;DHT22;41509;53.108;6.100;2023-02-28T04:50:50;4.80;99.90
55642;DHT22;41509;53.108;6.100;2023-02-28T04:53:16;4.70;99.90
55642;DHT22;41509;53.108;6.100;2023-02-28T04:55:42;4.70;99.90
55642;DHT22;41509;53.108;6.100;2023-02-28T04:58:08;4.70;99.90
55642;DHT22;41509;53.108;6.100;2023-02-28T05:00:34;4.70;99.90
55642;DHT22;41509;53.108;6.100;2023-02-28T05:03:00;4.60;99.90
55642;DHT22;41509;53.108;6.100;2023-02-28T05:05:25;4.60;99.90
55642;DHT22;41509;53.108;6.100;2023-02-28T05:07:51;4.50;99.90
55642;DHT22;41509;53.108;6.100;2023-02-28T05:10:17;4.50;99.90
55642;DHT22;41509;53.108;6.100;2023-02-28T05:12:42;4.50;99.90
55642;DHT22;41509;53.108;6.100;2023-02-28T05:15:13;4.50;99.90
55642;DHT22;41509;53.108;6.100;2023-02-28T05:17:39;4.40;99.90
55642;DHT22;41509;53.108;6.100;2023-02-28T05:20:05;4.40;99.90
55642;DHT22;41509;53.108;6.100;2023-02-28T05:22:31;4.40;99.90
55642;DHT22;41509;53.108;6.100;2023-02-28T05:24:57;4.30;99.90
55642;DHT22;41509;53.108;6.100;2023-02-28T05:27:23;4.20;99.90
55642;DHT22;41509;53.108;6.100;2023-02-28T05:29:49;4.20;99.90
55642;DHT22;41509;53.108;6.100;2023-02-28T05:32:14;4.20;99.90
55642;DHT22;41509;53.108;6.100;2023-02-28T05:34:41;4.10;99.90
55642;DHT22;41509;53.108;6.100;2023-02-28T05:37:11;4.10;99.90
55642;DHT22;41509;53.108;6.100;2023-02-28T05:39:37;4.00;99.90
55642;DHT22;41509;53.108;6.100;2023-02-28T05:42:04;4.00;99.90
55642;DHT22;41509;53.108;6.100;2023-02-28T05:44:29;4.00;99.90
55642;DHT22;41509;53.108;6.100;2023-02-28T05:46:55;3.90;99.90
55642;DHT22;41509;53.108;6.100;2023-02-28T05:49:21;3.90;99.90
55642;DHT22;41509;53.108;6.100;2023-02-28T05:51:47;3.90;99.90
55642;DHT22;41509;53.108;6.100;2023-02-28T05:54:13;3.90;99.90
55642;DHT22;41509;53.108;6.100;2023-02-28T05:56:38;3.90;99.90
55642;DHT22;41509;53.108;6.100;2023-02-28T05:59:05;3.80;99.90
55642;DHT22;41509;53.108;6.100;2023-02-28T06:04:04;3.80;99.90
55642;DHT22;41509;53.108;6.100;2023-02-28T06:06:30;3.80;99.90
55642;DHT22;41509;53.108;6.100;2023-02-28T06:08:57;3.80;99.90
55642;DHT22;41509;53.108;6.100;2023-02-28T06:11:22;3.70;99.90
55642;DHT22;41509;53.108;6.100;2023-02-28T06:14:01;3.80;99.90
55642;DHT22;41509;53.108;6.100;2023-02-28T06:16:28;3.80;99.90
55642;DHT22;41509;53.108;6.100;2023-02-28T06:18:56;3.70;99.90
55642;DHT22;41509;53.108;6.100;2023-02-28T06:21:22;3.70;99.90
55642;DHT22;41509;53.108;6.100;2023-02-28T06:23:48;3.70;99.90
55642;DHT22;41509;53.108;6.100;2023-02-28T06:26:13;3.70;99.90
55642;DHT22;41509;53.108;6.100;2023-02-28T06:28:39;3.60;99.90
55642;DHT22;41509;53.108;6.100;2023-02-28T06:31:07;3.60;99.90
55642;DHT22;41509;53.108;6.100;2023-02-28T06:33:33;3.50;99.90
55642;DHT22;41509;53.108;6.100;2023-02-28T06:35:59;3.50;99.90
55642;DHT22;41509;53.108;6.100;2023-02-28T06:38:25;3.50;99.90
55642;DHT22;41509;53.108;6.100;2023-02-28T06:40:55;3.50;99.90
55642;DHT22;41509;53.108;6.100;2023-02-28T06:43:21;3.40;99.90
55642;DHT22;41509;53.108;6.100;2023-02-28T06:45:47;3.50;99.90
55642;DHT22;41509;53.108;6.100;2023-02-28T06:48:13;3.40;99.90
55642;DHT22;41509;53.108;6.100;2023-02-28T06:50:39;3.40;99.90
55642;DHT22;41509;53.108;6.100;2023-02-28T06:53:04;3.40;99.90
55642;DHT22;41509;53.108;6.100;2023-02-28T06:55:30;3.40;99.90
55642;DHT22;41509;53.108;6.100;2023-02-28T06:57:57;3.40;99.90
55642;DHT22;41509;53.108;6.100;2023-02-28T07:00:23;3.40;99.90
55642;DHT22;41509;53.108;6.100;2023-02-28T07:02:48;3.30;99.90
55642;DHT22;41509;53.108;6.100;2023-02-28T07:05:14;3.30;99.90
55642;DHT22;41509;53.108;6.100;2023-02-28T07:07:40;3.30;99.90
55642;DHT22;41509;53.108;6.100;2023-02-28T07:10:10;3.30;99.90
55642;DHT22;41509;53.108;6.100;2023-02-28T07:12:37;3.30;99.90
55642;DHT22;41509;53.108;6.100;2023-02-28T07:15:04;3.30;99.90
55642;DHT22;41509;53.108;6.100;2023-02-28T07:17:29;3.30;99.90
55642;DHT22;41509;53.108;6.100;2023-02-28T07:19:55;3.30;99.90
55642;DHT22;41509;53.108;6.100;2023-02-28T07:22:21;3.30;99.90
55642;DHT22;41509;53.108;6.100;2023-02-28T07:24:47;3.30;99.90
55642;DHT22;41509;53.108;6.100;2023-02-28T07:27:12;3.30;99.90
55642;DHT22;41509;53.108;6.100;2023-02-28T07:29:51;3.20;99.90
55642;DHT22;41509;53.108;6.100;2023-02-28T07:32:16;3.20;99.90
55642;DHT22;41509;53.108;6.100;2023-02-28T07:34:42;3.20;99.90
55642;DHT22;41509;53.108;6.100;2023-02-28T07:37:08;3.20;99.90
55642;DHT22;41509;53.108;6.100;2023-02-28T07:39:33;3.20;99.90
55642;DHT22;41509;53.108;6.100;2023-02-28T07:41:59;3.20;99.90
55642;DHT22;41509;53.108;6.100;2023-02-28T07:44:26;3.20;99.90
55642;DHT22;41509;53.108;6.100;2023-02-28T07:46:51;3.20;99.90
55642;DHT22;41509;53.108;6.100;2023-02-28T07:49:18;3.20;99.90
55642;DHT22;41509;53.108;6.100;2023-02-28T07:51:44;3.20;99.90
55642;DHT22;41509;53.108;6.100;2023-02-28T07:54:09;3.20;99.90
55642;DHT22;41509;53.108;6.100;2023-02-28T07:56:35;3.20;99.90
55642;DHT22;41509;53.108;6.100;2023-02-28T07:59:01;3.20;99.90
55642;DHT22;41509;53.108;6.100;2023-02-28T08:01:27;3.20;99.90
55642;DHT22;41509;53.108;6.100;2023-02-28T08:03:53;3.20;99.90
55642;DHT22;41509;53.108;6.100;2023-02-28T08:06:22;3.20;99.90
55642;DHT22;41509;53.108;6.100;2023-02-28T08:08:49;3.20;99.90
55642;DHT22;41509;53.108;6.100;2023-02-28T08:11:15;3.30;99.90
55642;DHT22;41509;53.108;6.100;2023-02-28T08:13:42;3.30;99.90
55642;DHT22;41509;53.108;6.100;2023-02-28T08:16:09;3.40;99.90
55642;DHT22;41509;53.108;6.100;2023-02-28T08:18:35;3.40;99.90
55642;DHT22;41509;53.108;6.100;2023-02-28T08:21:09;3.40;99.90
55642;DHT22;41509;53.108;6.100;2023-02-28T08:23:35;3.40;99.90
55642;DHT22;41509;53.108;6.100;2023-02-28T08:26:01;3.40;99.90
55642;DHT22;41509;53.108;6.100;2023-02-28T08:28:26;3.40;99.90
55642;DHT22;41509;53.108;6.100;2023-02-28T08:30:52;3.50;99.90
55642;DHT22;41509;53.108;6.100;2023-02-28T08:33:19;3.50;99.90
55642;DHT22;41509;53.108;6.100;2023-02-28T08:35:44;3.50;99.90
55642;DHT22;41509;53.108;6.100;2023-02-28T08:38:10;3.50;99.90
55642;DHT22;41509;53.108;6.100;2023-02-28T08:40:36;3.60;99.90
55642;DHT22;41509;53.108;6.100;2023-02-28T08:43:01;3.50;99.90
55642;DHT22;41509;53.108;6.100;2023-02-28T08:45:27;3.60;99.90
55642;DHT22;41509;53.108;6.100;2023-02-28T08:47:54;3.70;99.90
55642;DHT22;41509;53.108;6.100;2023-02-28T08:50:20;3.60;99.90
55642;DHT22;41509;53.108;6.100;2023-02-28T08:52:46;3.70;99.90
55642;DHT22;41509;53.108;6.100;2023-02-28T08:55:12;3.70;99.90
55642;DHT22;41509;53.108;6.100;2023-02-28T08:57:37;3.80;99.90
55642;DHT22;41509;53.108;6.100;2023-02-28T09:00:04;3.90;99.90
55642;DHT22;41509;53.108;6.100;2023-02-28T09:02:33;4.00;99.90
55642;DHT22;41509;53.108;6.100;2023-02-28T09:04:58;4.10;99.90
55642;DHT22;41509;53.108;6.100;2023-02-28T09:07:25;4.20;99.90
55642;DHT22;41509;53.108;6.100;2023-02-28T09:09:51;4.20;99.90
55642;DHT22;41509;53.108;6.100;2023-02-28T09:12:26;4.30;99.90
55642;DHT22;41509;53.108;6.100;2023-02-28T09:14:53;4.30;99.90
55642;DHT22;41509;53.108;6.100;2023-02-28T09:17:19;4.40;99.90
55642;DHT22;41509;53.108;6.100;2023-02-28T09:19:47;4.40;99.90
55642;DHT22;41509;53.108;6.100;2023-02-28T09:22:12;4.50;99.90
55642;DHT22;41509;53.108;6.100;2023-02-28T09:24:38;4.50;99.90
55642;DHT22;41509;53.108;6.100;2023-02-28T09:27:05;4.50;99.90
55642;DHT22;41509;53.108;6.100;2023-02-28T09:29:34;4.50;99.90
55642;DHT22;41509;53.108;6.100;2023-02-28T09:32:00;4.60;99.90
55642;DHT22;41509;53.108;6.100;2023-02-28T09:34:27;4.60;99.90
55642;DHT22;41509;53.108;6.100;2023-02-28T09:36:56;4.70;99.90
55642;DHT22;41509;53.108;6.100;2023-02-28T09:39:22;4.80;99.90
55642;DHT22;41509;53.108;6.100;2023-02-28T09:41:51;4.90;99.90
55642;DHT22;41509;53.108;6.100;2023-02-28T09:44:28;5.00;99.90
55642;DHT22;41509;53.108;6.100;2023-02-28T09:46:57;5.10;99.90
55642;DHT22;41509;53.108;6.100;2023-02-28T09:49:33;5.20;99.90
55642;DHT22;41509;53.108;6.100;2023-02-28T09:52:19;5.20;99.90
55642;DHT22;41509;53.108;6.100;2023-02-28T09:54:45;5.20;99.90
55642;DHT22;41509;53.108;6.100;2023-02-28T10:05:24;5.30;99.90
55642;DHT22;41509;53.108;6.100;2023-02-28T10:08:30;5.40;99.90
55642;DHT22;41509;53.108;6.100;2023-02-28T10:11:00;5.40;99.90
55642;DHT22;41509;53.108;6.100;2023-02-28T10:16:18;5.50;99.90
55642;DHT22;41509;53.108;6.100;2023-02-28T10:21:31;5.70;99.90
55642;DHT22;41509;53.108;6.100;2023-02-28T10:27:01;6.00;99.90
55642;DHT22;41509;53.108;6.100;2023-02-28T10:29:31;6.00;99.90
55642;DHT22;41509;53.108;6.100;2023-02-28T10:32:01;6.20;99.90
55642;DHT22;41509;53.108;6.100;2023-02-28T10:34:27;6.30;99.90
55642;DHT22;41509;53.108;6.100;2023-02-28T10:36:53;6.30;99.90
55642;DHT22;41509;53.108;6.100;2023-02-28T10:39:39;6.40;99.90
55642;DHT22;41509;53.108;6.100;2023-02-28T10:42:22;6.50;99.90
55642;DHT22;41509;53.108;6.100;2023-02-28T10:45:14;6.60;99.90
55642;DHT22;41509;53.108;6.100;2023-02-28T10:50:43;6.70;99.90
55642;DHT22;41509;53.108;6.100;2023-02-28T10:59:05;7.10;99.90
55642;DHT22;41509;53.108;6.100;2023-02-28T11:01:47;7.20;99.90
55642;DHT22;41509;53.108;6.100;2023-02-28T11:07:03;7.40;99.90
55642;DHT22;41509;53.108;6.100;2023-02-28T11:09:34;7.60;99.90
55642;DHT22;41509;53.108;6.100;2023-02-28T11:12:02;7.60;99.90
55642;DHT22;41509;53.108;6.100;2023-02-28T11:14:32;7.70;99.90
55642;DHT22;41509;53.108;6.100;2023-02-28T11:17:11;7.90;99.90
55642;DHT22;41509;53.108;6.100;2023-02-28T11:19:44;8.00;99.90
55642;DHT22;41509;53.108;6.100;2023-02-28T11:22:10;8.00;99.90
55642;DHT22;41509;53.108;6.100;2023-02-28T11:24:45;8.10;99.90
55642;DHT22;41509;53.108;6.100;2023-02-28T11:29:58;8.20;99.90
55642;DHT22;41509;53.108;6.100;2023-02-28T11:32:25;8.20;99.90
55642;DHT22;41509;53.108;6.100;2023-02-28T11:37:35;8.40;99.90
55642;DHT22;41509;53.108;6.100;2023-02-28T11:40:02;8.50;99.90
55642;DHT22;41509;53.108;6.100;2023-02-28T11:42:38;8.50;99.90
55642;DHT22;41509;53.108;6.100;2023-02-28T11:47:58;8.70;99.90
55642;DHT22;41509;53.108;6.100;2023-02-28T12:06:23;9.30;99.90
55642;DHT22;41509;53.108;6.100;2023-02-28T12:19:48;9.50;99.90
55642;DHT22;41509;53.108;6.100;2023-02-28T12:22:38;9.50;99.90
55642;DHT22;41509;53.108;6.100;2023-02-28T12:28:15;9.70;99.90
55642;DHT22;41509;53.108;6.100;2023-02-28T12:30:56;9.80;99.90
55642;DHT22;41509;53.108;6.100;2023-02-28T12:33:26;9.80;99.90
55642;DHT22;41509;53.108;6.100;2023-02-28T12:35:58;9.90;99.90
55642;DHT22;41509;53.108;6.100;2023-02-28T12:38:31;9.90;99.90
55642;DHT22;41509;53.108;6.100;2023-02-28T12:41:05;10.00;99.90
55642;DHT22;41509;53.108;6.100;2023-02-28T12:43:55;10.00;99.90
55642;DHT22;41509;53.108;6.100;2023-02-28T12:46:34;10.00;99.90
55642;DHT22;41509;53.108;6.100;2023-02-28T12:49:18;9.70;99.90
55642;DHT22;41509;53.108;6.100;2023-02-28T12:51:46;9.60;99.90
55642;DHT22;41509;53.108;6.100;2023-02-28T12:57:10;9.60;99.90
55642;DHT22;41509;53.108;6.100;2023-02-28T12:59:57;9.50;99.90
55642;DHT22;41509;53.108;6.100;2023-02-28T13:10:49;9.90;99.90
55642;DHT22;41509;53.108;6.100;2023-02-28T13:13:27;10.00;99.90
55642;DHT22;41509;53.108;6.100;2023-02-28T13:16:10;10.10;99.90
55642;DHT22;41509;53.108;6.100;2023-02-28T13:18:44;10.40;99.90
55642;DHT22;41509;53.108;6.100;2023-02-28T13:21:29;10.50;99.90
55642;DHT22;41509;53.108;6.100;2023-02-28T13:29:01;11.00;99.90
55642;DHT22;41509;53.108;6.100;2023-02-28T13:31:27;11.10;99.90
55642;DHT22;41509;53.108;6.100;2023-02-28T13:36:27;11.30;99.40
55642;DHT22;41509;53.108;6.100;2023-02-28T13:38:56;11.40;99.40
55642;DHT22;41509;53.108;6.100;2023-02-28T13:44:15;11.30;97.90
55642;DHT22;41509;53.108;6.100;2023-02-28T13:51:52;11.70;98.20
55642;DHT22;41509;53.108;6.100;2023-02-28T14:02:59;11.60;97.10
55642;DHT22;41509;53.108;6.100;2023-02-28T14:05:27;11.60;96.30
55642;DHT22;41509;53.108;6.100;2023-02-28T14:07:59;11.50;96.50
55642;DHT22;41509;53.108;6.100;2023-02-28T14:10:42;11.40;96.10
55642;DHT22;41509;53.108;6.100;2023-02-28T14:13:36;11.30;95.10
55642;DHT22;41509;53.108;6.100;2023-02-28T14:16:01;11.30;94.90
55642;DHT22;41509;53.108;6.100;2023-02-28T14:18:34;11.30;95.80
55642;DHT22;41509;53.108;6.100;2023-02-28T14:24:25;11.30;95.00
55642;DHT22;41509;53.108;6.100;2023-02-28T14:37:47;10.80;94.60
55642;DHT22;41509;53.108;6.100;2023-02-28T14:40:32;10.80;94.60
55642;DHT22;41509;53.108;6.100;2023-02-28T14:43:04;10.70;93.20
55642;DHT22;41509;53.108;6.100;2023-02-28T14:45:32;10.60;94.10
55642;DHT22;41509;53.108;6.100;2023-02-28T14:47:59;10.50;94.90
55642;DHT22;41509;53.108;6.100;2023-02-28T14:50:34;10.40;94.70
55642;DHT22;41509;53.108;6.100;2023-02-28T14:53:01;10.20;94.40
55642;DHT22;41509;53.108;6.100;2023-02-28T14:55:36;10.00;94.70
55642;DHT22;41509;53.108;6.100;2023-02-28T14:58:04;9.80;93.90
55642;DHT22;41509;53.108;6.100;2023-02-28T15:00:36;9.60;95.40
55642;DHT22;41509;53.108;6.100;2023-02-28T15:03:31;9.40;95.50
55642;DHT22;41509;53.108;6.100;2023-02-28T15:06:00;9.20;95.30
55642;DHT22;41509;53.108;6.100;2023-02-28T15:08:28;9.10;96.10
55642;DHT22;41509;53.108;6.100;2023-02-28T15:11:00;9.00;96.10
55642;DHT22;41509;53.108;6.100;2023-02-28T15:13:44;9.00;95.80
55642;DHT22;41509;53.108;6.100;2023-02-28T15:18:50;8.70;95.90
55642;DHT22;41509;53.108;6.100;2023-02-28T15:24:01;8.50;95.90
55642;DHT22;41509;53.108;6.100;2023-02-28T15:26:33;8.40;95.60
55642;DHT22;41509;53.108;6.100;2023-02-28T15:29:03;8.30;96.10
55642;DHT22;41509;53.108;6.100;2023-02-28T15:31:33;8.20;96.00
55642;DHT22;41509;53.108;6.100;2023-02-28T15:34:04;8.10;96.20
55642;DHT22;41509;53.108;6.100;2023-02-28T15:36:32;8.00;96.50
55642;DHT22;41509;53.108;6.100;2023-02-28T15:38:59;8.00;96.60
55642;DHT22;41509;53.108;6.100;2023-02-28T15:41:36;7.90;96.90
55642;DHT22;41509;53.108;6.100;2023-02-28T15:44:26;7.90;97.10
55642;DHT22;41509;53.108;6.100;2023-02-28T15:47:03;7.80;96.90
55642;DHT22;41509;53.108;6.100;2023-02-28T15:49:44;7.80;97.20
55642;DHT22;41509;53.108;6.100;2023-02-28T15:52:20;7.80;97.30
55642;DHT22;41509;53.108;6.100;2023-02-28T15:54:47;7.70;97.60
55642;DHT22;41509;53.108;6.100;2023-02-28T15:57:19;7.60;97.70
55642;DHT22;41509;53.108;6.100;2023-02-28T15:59:56;7.60;98.00
55642;DHT22;41509;53.108;6.100;2023-02-28T16:02:34;7.50;97.80
55642;DHT22;41509;53.108;6.100;2023-02-28T16:07:42;7.40;98.40
55642;DHT22;41509;53.108;6.100;2023-02-28T16:10:11;7.30;98.50
55642;DHT22;41509;53.108;6.100;2023-02-28T16:12:38;7.30;98.80
55642;DHT22;41509;53.108;6.100;2023-02-28T16:15:15;7.20;99.10
55642;DHT22;41509;53.108;6.100;2023-02-28T16:17:42;7.10;99.40
55642;DHT22;41509;53.108;6.100;2023-02-28T16:20:19;7.10;99.60
55642;DHT22;41509;53.108;6.100;2023-02-28T16:22:45;7.10;99.90
55642;DHT22;41509;53.108;6.100;2023-02-28T16:25:15;7.00;99.90
55642;DHT22;41509;53.108;6.100;2023-02-28T16:27:42;7.00;99.90
55642;DHT22;41509;53.108;6.100;2023-02-28T16:30:17;6.90;99.90
55642;DHT22;41509;53.108;6.100;2023-02-28T16:32:45;6.90;99.90
55642;DHT22;41509;53.108;6.100;2023-02-28T16:35:11;6.80;99.90
55642;DHT22;41509;53.108;6.100;2023-02-28T16:37:37;6.80;99.90
55642;DHT22;41509;53.108;6.100;2023-02-28T16:40:03;6.70;99.90
55642;DHT22;41509;53.108;6.100;2023-02-28T16:42:31;6.70;99.90
55642;DHT22;41509;53.108;6.100;2023-02-28T16:44:57;6.60;99.90
55642;DHT22;41509;53.108;6.100;2023-02-28T16:47:23;6.50;99.90
55642;DHT22;41509;53.108;6.100;2023-02-28T16:49:52;6.50;99.90
55642;DHT22;41509;53.108;6.100;2023-02-28T16:52:18;6.40;99.90
55642;DHT22;41509;53.108;6.100;2023-02-28T16:54:43;6.40;99.90
55642;DHT22;41509;53.108;6.100;2023-02-28T16:57:21;6.40;99.90
55642;DHT22;41509;53.108;6.100;2023-02-28T16:59:48;6.30;99.90
55642;DHT22;41509;53.108;6.100;2023-02-28T17:02:17;6.30;99.90
55642;DHT22;41509;53.108;6.100;2023-02-28T17:04:45;6.20;99.90
55642;DHT22;41509;53.108;6.100;2023-02-28T17:07:12;6.20;99.90
55642;DHT22;41509;53.108;6.100;2023-02-28T17:09:38;6.10;99.90
55642;DHT22;41509;53.108;6.100;2023-02-28T17:12:04;6.00;99.90
55642;DHT22;41509;53.108;6.100;2023-02-28T17:14:31;6.00;99.90
55642;DHT22;41509;53.108;6.100;2023-02-28T17:16:56;5.90;99.90
55642;DHT22;41509;53.108;6.100;2023-02-28T17:19:22;5.80;99.90
55642;DHT22;41509;53.108;6.100;2023-02-28T17:21:47;5.80;99.90
55642;DHT22;41509;53.108;6.100;2023-02-28T17:24:13;5.70;99.90
55642;DHT22;41509;53.108;6.100;2023-02-28T17:26:41;5.70;99.90
55642;DHT22;41509;53.108;6.100;2023-02-28T17:29:18;5.60;99.90
55642;DHT22;41509;53.108;6.100;2023-02-28T17:31:44;5.60;99.90
55642;DHT22;41509;53.108;6.100;2023-02-28T17:34:11;5.50;99.90
55642;DHT22;41509;53.108;6.100;2023-02-28T17:36:47;5.40;99.90
55642;DHT22;41509;53.108;6.100;2023-02-28T17:39:13;5.40;99.90
55642;DHT22;41509;53.108;6.100;2023-02-28T17:41:41;5.30;99.90
55642;DHT22;41509;53.108;6.100;2023-02-28T17:44:07;5.30;99.90
55642;DHT22;41509;53.108;6.100;2023-02-28T17:46:34;5.30;99.90
55642;DHT22;41509;53.108;6.100;2023-02-28T17:48:59;5.20;99.90
55642;DHT22;41509;53.108;6.100;2023-02-28T17:51:25;5.20;99.90
55642;DHT22;41509;53.108;6.100;2023-02-28T17:53:51;5.10;99.90
55642;DHT22;41509;53.108;6.100;2023-02-28T17:56:22;5.00;99.90
55642;DHT22;41509;53.108;6.100;2023-02-28T17:58:49;5.00;99.90
55642;DHT22;41509;53.108;6.100;2023-02-28T18:01:15;4.90;99.90
55642;DHT22;41509;53.108;6.100;2023-02-28T18:03:41;4.90;99.90
55642;DHT22;41509;53.108;6.100;2023-02-28T18:06:18;4.80;99.90
55642;DHT22;41509;53.108;6.100;2023-02-28T18:08:44;4.80;99.90
55642;DHT22;41509;53.108;6.100;2023-02-28T18:11:10;4.70;99.90
55642;DHT22;41509;53.108;6.100;2023-02-28T18:13:53;4.70;99.90
55642;DHT22;41509;53.108;6.100;2023-02-28T18:16:20;4.60;99.90
55642;DHT22;41509;53.108;6.100;2023-02-28T18:18:47;4.60;99.90
55642;DHT22;41509;53.108;6.100;2023-02-28T18:21:15;4.60;99.90
55642;DHT22;41509;53.108;6.100;2023-02-28T18:23:42;4.50;99.90
55642;DHT22;41509;53.108;6.100;2023-02-28T18:26:16;4.50;99.90
55642;DHT22;41509;53.108;6.100;2023-02-28T18:28:43;4.40;99.90
55642;DHT22;41509;53.108;6.100;2023-02-28T18:31:11;4.40;99.90
55642;DHT22;41509;53.108;6.100;2023-02-28T18:33:38;4.30;99.90
55642;DHT22;41509;53.108;6.100;2023-02-28T18:36:05;4.30;99.90
55642;DHT22;41509;53.108;6.100;2023-02-28T18:38:31;4.30;99.90
55642;DHT22;41509;53.108;6.100;2023-02-28T18:41:02;4.30;99.90